Time;durP1;ratioP1;P1;durP2;ratioP2;P2;SDS_P1;SDS_P2;PMS_P1;PMS_P2;Temp;Humidity;BMP_temperature;BMP_pressure;BME280_temperature;BME280_humidity;BME280_pressure;Samples;Min_cycle;Max_cycle;Signal;HPM_P1;HPM_P2
2023/12/09 00:00:36;;;;;;;103.85;31.17;;;8.70;99.90;;;;;;5002845;28;20160;-80
2023/12/09 00:03:01;;;;;;;93.30;30.90;;;8.70;99.90;;;;;;5002545;28;20046;-80
2023/12/09 00:05:27;;;;;;;91.57;30.77;;;8.80;99.90;;;;;;5020305;28;20208;-80
2023/12/09 00:07:53;;;;;;;102.35;30.33;;;8.80;99.90;;;;;;5009943;28;20046;-80
2023/12/09 00:10:18;;;;;;;78.47;28.30;;;8.80;99.90;;;;;;5006244;28;20034;-80
2023/12/09 00:12:44;;;;;;;82.80;28.92;;;8.80;99.90;;;;;;5013309;28;20310;-80
2023/12/09 00:15:10;;;;;;;78.22;29.05;;;8.70;99.90;;;;;;5011731;28;20382;-80
2023/12/09 00:17:35;;;;;;;84.35;29.02;;;8.70;99.90;;;;;;5009308;28;20164;-80
2023/12/09 00:20:04;;;;;;;89.20;29.85;;;8.80;99.90;;;;;;5010117;28;20125;-80
2023/12/09 00:22:30;;;;;;;85.68;29.25;;;8.70;99.90;;;;;;5001066;28;20037;-80
2023/12/09 00:24:56;;;;;;;82.82;30.52;;;8.90;99.90;;;;;;4991264;28;20566;-80
2023/12/09 00:27:21;;;;;;;89.88;31.08;;;8.90;99.90;;;;;;5006491;28;20034;-80
2023/12/09 00:29:47;;;;;;;84.25;29.90;;;8.80;99.90;;;;;;4996485;28;20098;-80
2023/12/09 00:32:13;;;;;;;74.90;27.85;;;8.70;99.90;;;;;;5018420;28;20038;-80
2023/12/09 00:34:39;;;;;;;85.13;29.20;;;8.80;99.90;;;;;;5013974;28;20091;-80
2023/12/09 00:37:04;;;;;;;94.00;29.15;;;9.00;99.90;;;;;;5015373;28;20038;-80
2023/12/09 00:39:30;;;;;;;82.78;28.23;;;8.90;99.90;;;;;;4995232;28;20038;-80
2023/12/09 00:41:55;;;;;;;84.80;27.95;;;8.90;99.90;;;;;;4999674;28;20041;-80
2023/12/09 00:44:22;;;;;;;79.47;29.17;;;8.90;99.90;;;;;;5007585;28;20052;-80
2023/12/09 00:46:48;;;;;;;90.60;28.75;;;8.80;99.90;;;;;;5014424;28;20103;-80
2023/12/09 00:49:14;;;;;;;77.78;28.35;;;8.80;99.90;;;;;;5009923;28;20034;-80
2023/12/09 00:51:39;;;;;;;91.53;29.10;;;9.00;99.90;;;;;;5001153;28;20079;-80
2023/12/09 00:54:05;;;;;;;88.20;28.40;;;8.80;99.90;;;;;;5005534;28;20479;-80
2023/12/09 00:56:31;;;;;;;91.93;28.85;;;8.90;99.90;;;;;;5010512;28;20060;-80
2023/12/09 00:58:57;;;;;;;73.88;26.50;;;8.80;99.90;;;;;;5002951;28;20052;-80
2023/12/09 01:01:22;;;;;;;94.18;30.17;;;8.80;99.90;;;;;;4997507;28;20037;-80
2023/12/09 01:03:48;;;;;;;71.80;25.40;;;8.80;99.90;;;;;;5013491;28;20193;-80
2023/12/09 01:06:14;;;;;;;72.65;25.23;;;9.00;99.90;;;;;;5016042;28;20517;-80
2023/12/09 01:08:39;;;;;;;79.75;27.55;;;8.90;99.90;;;;;;5019241;28;20152;-80
2023/12/09 01:11:05;;;;;;;84.43;27.27;;;8.90;99.90;;;;;;5015216;28;20037;-80
2023/12/09 01:13:31;;;;;;;74.78;25.17;;;9.00;99.90;;;;;;4995038;28;20045;-80
2023/12/09 01:15:57;;;;;;;69.70;24.98;;;8.80;99.90;;;;;;5010980;28;20045;-80
2023/12/09 01:18:22;;;;;;;68.55;25.52;;;8.80;99.90;;;;;;5013417;28;20044;-80
2023/12/09 01:20:48;;;;;;;73.53;27.02;;;8.80;99.90;;;;;;5018764;28;20029;-80
2023/12/09 01:23:14;;;;;;;67.82;27.33;;;8.90;99.90;;;;;;5015808;28;20037;-80
2023/12/09 01:25:39;;;;;;;71.47;25.10;;;8.80;99.90;;;;;;4992811;28;20461;-80
2023/12/09 01:28:06;;;;;;;79.15;27.30;;;9.10;99.90;;;;;;5002093;28;20056;-80
2023/12/09 01:30:32;;;;;;;77.18;26.08;;;8.80;99.90;;;;;;5017019;28;20045;-80
2023/12/09 01:32:57;;;;;;;71.90;25.73;;;9.00;99.90;;;;;;5002498;28;20034;-80
2023/12/09 01:35:23;;;;;;;88.50;28.17;;;9.00;99.90;;;;;;4998360;28;20412;-80
2023/12/09 01:37:49;;;;;;;69.43;25.27;;;8.90;99.90;;;;;;5011111;28;20104;-80
2023/12/09 01:40:15;;;;;;;65.40;25.38;;;8.90;99.90;;;;;;5001170;28;20463;-80
2023/12/09 01:42:42;;;;;;;73.72;26.13;;;8.90;99.90;;;;;;4999764;28;20130;-79
2023/12/09 01:45:09;;;;;;;71.72;25.17;;;9.10;99.90;;;;;;5015221;28;20487;-80
2023/12/09 01:47:35;;;;;;;61.20;25.23;;;9.10;99.90;;;;;;5008327;28;20143;-80
2023/12/09 01:50:06;;;;;;;61.78;24.63;;;8.90;99.90;;;;;;5016697;28;20042;-80
2023/12/09 01:52:32;;;;;;;68.57;24.67;;;9.10;99.90;;;;;;5015138;28;20445;-80
2023/12/09 01:54:59;;;;;;;62.67;24.58;;;9.00;99.90;;;;;;5016481;28;20045;-80
2023/12/09 01:57:26;;;;;;;67.65;25.55;;;8.90;99.90;;;;;;5019032;28;20065;-80
2023/12/09 01:59:53;;;;;;;62.72;25.63;;;8.90;99.90;;;;;;5009132;28;20140;-80
2023/12/09 02:02:18;;;;;;;66.22;24.90;;;9.10;99.90;;;;;;4997858;28;20117;-80
2023/12/09 02:04:44;;;;;;;63.13;24.17;;;9.10;99.90;;;;;;5011843;28;20125;-80
2023/12/09 02:07:10;;;;;;;69.45;25.83;;;8.90;99.90;;;;;;5010718;28;20061;-80
2023/12/09 02:09:39;;;;;;;64.22;24.48;;;9.00;99.90;;;;;;5013081;28;20241;-80
2023/12/09 02:12:23;;;;;;;69.75;25.88;;;9.00;99.90;;;;;;4996423;28;20111;-80
2023/12/09 02:15:03;;;;;;;60.10;24.23;;;8.90;99.90;;;;;;5012003;28;20417;-80
2023/12/09 02:17:44;;;;;;;56.40;24.90;;;9.10;99.90;;;;;;4995051;28;20076;-80
2023/12/09 02:20:11;;;;;;;55.03;24.00;;;9.10;99.90;;;;;;4995759;28;20523;-80
2023/12/09 02:22:37;;;;;;;70.45;24.00;;;9.10;99.90;;;;;;5011877;28;20420;-80
2023/12/09 02:25:02;;;;;;;65.47;23.10;;;8.90;99.90;;;;;;5011853;28;20041;-80
2023/12/09 02:27:36;;;;;;;58.83;22.45;;;9.10;99.90;;;;;;4997631;28;20072;-80
2023/12/09 02:30:15;;;;;;;60.40;24.63;;;9.00;99.90;;;;;;4993458;28;20124;-80
2023/12/09 02:32:41;;;;;;;68.57;23.35;;;9.00;99.90;;;;;;4998316;28;20563;-80
2023/12/09 02:35:10;;;;;;;62.72;23.15;;;9.10;99.90;;;;;;5010433;28;20170;-80
2023/12/09 02:37:36;;;;;;;66.80;22.40;;;9.00;99.90;;;;;;5014791;28;20073;-80
2023/12/09 02:40:03;;;;;;;66.13;22.40;;;9.10;99.90;;;;;;5013887;28;20041;-80
2023/12/09 02:42:29;;;;;;;63.30;21.95;;;8.90;99.90;;;;;;5003392;28;20049;-80
2023/12/09 02:44:58;;;;;;;60.30;23.33;;;8.90;99.90;;;;;;5015489;28;20554;-80
2023/12/09 02:47:25;;;;;;;64.75;23.55;;;8.90;99.90;;;;;;4994854;28;20041;-80
2023/12/09 02:49:51;;;;;;;54.58;21.38;;;9.00;99.90;;;;;;5013742;28;20064;-80
2023/12/09 02:52:17;;;;;;;59.30;21.98;;;9.10;99.90;;;;;;5014542;28;20025;-80
2023/12/09 02:54:42;;;;;;;58.38;22.13;;;8.90;99.90;;;;;;5014829;28;20477;-80
2023/12/09 02:57:08;;;;;;;65.22;21.83;;;8.90;99.90;;;;;;4996507;28;20034;-80
2023/12/09 02:59:36;;;;;;;64.30;24.02;;;9.10;99.90;;;;;;5000301;28;20045;-80
2023/12/09 03:02:02;;;;;;;61.50;21.35;;;8.90;99.90;;;;;;5009050;28;20393;-80
2023/12/09 03:04:28;;;;;;;59.85;22.70;;;8.90;99.90;;;;;;5016787;28;20034;-80
2023/12/09 03:06:54;;;;;;;60.15;20.83;;;9.10;99.90;;;;;;5011865;28;20048;-80
2023/12/09 03:09:19;;;;;;;65.95;22.27;;;9.10;99.90;;;;;;4999580;28;20496;-80
2023/12/09 03:11:45;;;;;;;47.25;21.13;;;9.00;99.90;;;;;;5009552;28;20370;-80
2023/12/09 03:14:11;;;;;;;55.28;21.30;;;9.10;99.90;;;;;;5007526;28;20278;-80
2023/12/09 03:16:37;;;;;;;58.22;21.27;;;9.10;99.90;;;;;;4991859;28;20457;-80
2023/12/09 03:19:03;;;;;;;48.00;20.75;;;9.10;99.90;;;;;;5029793;28;20045;-80
2023/12/09 03:21:29;;;;;;;54.38;20.27;;;8.90;99.90;;;;;;5004267;28;20056;-80
2023/12/09 03:23:54;;;;;;;53.70;20.52;;;8.90;99.90;;;;;;5010335;28;20554;-80
2023/12/09 03:26:20;;;;;;;51.65;21.27;;;8.90;99.90;;;;;;5009655;28;20120;-80
2023/12/09 03:28:46;;;;;;;49.20;20.38;;;9.00;99.90;;;;;;5017527;28;20044;-80
2023/12/09 03:31:13;;;;;;;51.40;19.13;;;9.00;99.90;;;;;;5009588;28;20401;-80
2023/12/09 03:33:40;;;;;;;48.97;19.70;;;8.90;99.90;;;;;;5000436;28;20186;-79
2023/12/09 03:36:07;;;;;;;50.65;19.55;;;8.80;99.90;;;;;;5009838;28;20135;-80
2023/12/09 03:38:33;;;;;;;55.80;19.25;;;8.80;99.90;;;;;;5007137;28;20037;-80
2023/12/09 03:40:59;;;;;;;46.67;19.10;;;8.80;99.90;;;;;;5017257;28;20052;-80
2023/12/09 03:43:24;;;;;;;45.70;18.42;;;8.90;99.90;;;;;;5010898;28;20193;-80
2023/12/09 03:45:50;;;;;;;40.65;18.65;;;8.80;99.90;;;;;;5005991;28;20499;-80
2023/12/09 03:48:17;;;;;;;46.28;20.05;;;8.80;99.90;;;;;;4993540;28;20479;-80
2023/12/09 03:50:43;;;;;;;48.60;20.02;;;8.90;99.90;;;;;;5010201;28;20140;-80
2023/12/09 03:53:08;;;;;;;54.83;18.98;;;8.80;99.90;;;;;;5010156;28;20231;-80
2023/12/09 03:55:34;;;;;;;46.40;18.80;;;8.80;99.90;;;;;;4996456;28;20048;-80
2023/12/09 03:58:00;;;;;;;49.88;19.90;;;8.90;99.90;;;;;;4997766;28;20162;-80
2023/12/09 04:00:25;;;;;;;50.20;19.60;;;8.80;99.90;;;;;;5009832;28;20042;-80
2023/12/09 04:02:51;;;;;;;46.83;20.25;;;8.60;99.90;;;;;;4996803;28;20041;-80
2023/12/09 04:05:17;;;;;;;48.88;19.58;;;8.70;99.90;;;;;;5014705;28;20148;-80
2023/12/09 04:07:43;;;;;;;51.67;19.13;;;8.80;99.90;;;;;;5003947;28;20080;-80
2023/12/09 04:10:11;;;;;;;52.08;19.90;;;8.60;99.90;;;;;;5015873;28;20418;-80
2023/12/09 04:12:37;;;;;;;44.72;19.15;;;8.60;99.90;;;;;;5014604;28;20071;-80
2023/12/09 04:15:03;;;;;;;49.03;19.40;;;8.80;99.90;;;;;;5013435;28;20038;-80
2023/12/09 04:17:29;;;;;;;38.58;19.10;;;8.60;99.90;;;;;;5000322;28;20127;-80
2023/12/09 04:19:54;;;;;;;47.08;18.25;;;8.80;99.90;;;;;;4998281;28;20050;-80
2023/12/09 04:22:20;;;;;;;44.97;19.08;;;8.60;99.90;;;;;;5032947;28;20042;-80
2023/12/09 04:24:46;;;;;;;43.83;18.23;;;8.70;99.90;;;;;;5000506;28;20046;-80
2023/12/09 04:27:12;;;;;;;46.30;17.88;;;8.80;99.90;;;;;;5017404;28;20041;-80
2023/12/09 04:29:38;;;;;;;48.60;18.60;;;8.60;99.90;;;;;;5006308;28;20071;-80
2023/12/09 04:32:04;;;;;;;45.20;17.90;;;8.60;99.90;;;;;;4998064;28;20497;-80
2023/12/09 04:34:29;;;;;;;44.08;18.08;;;8.60;99.90;;;;;;5000604;28;20171;-80
2023/12/09 04:36:56;;;;;;;49.33;18.25;;;8.70;99.90;;;;;;5014530;28;20133;-80
2023/12/09 04:39:22;;;;;;;43.88;17.52;;;8.60;99.90;;;;;;5018611;28;20156;-80
2023/12/09 04:41:47;;;;;;;40.05;16.50;;;8.60;99.90;;;;;;5000335;28;20041;-80
2023/12/09 04:44:13;;;;;;;44.63;17.33;;;8.70;99.90;;;;;;5013619;28;20042;-80
2023/12/09 04:46:39;;;;;;;44.20;16.58;;;8.70;99.90;;;;;;5000183;28;20108;-80
2023/12/09 04:49:05;;;;;;;38.90;17.70;;;8.80;99.90;;;;;;5002593;28;20034;-80
2023/12/09 04:51:31;;;;;;;36.88;16.52;;;8.80;99.90;;;;;;5012794;28;20068;-80
2023/12/09 04:53:56;;;;;;;38.15;16.13;;;8.60;99.90;;;;;;5000259;28;20341;-80
2023/12/09 04:56:22;;;;;;;42.83;16.58;;;8.60;99.90;;;;;;4997108;28;20041;-80
2023/12/09 04:58:48;;;;;;;37.95;15.55;;;8.80;99.90;;;;;;5004948;28;20045;-80
2023/12/09 05:01:17;;;;;;;41.25;16.05;;;8.80;99.90;;;;;;4997614;28;20132;-80
2023/12/09 05:03:47;;;;;;;44.60;16.80;;;8.80;99.90;;;;;;5016622;28;20104;-80
2023/12/09 05:06:12;;;;;;;40.72;16.33;;;8.60;99.90;;;;;;5012017;28;20053;-80
2023/12/09 05:08:41;;;;;;;46.85;16.35;;;8.70;99.90;;;;;;5018269;28;20398;-80
2023/12/09 05:11:08;;;;;;;38.17;15.43;;;8.60;99.90;;;;;;5012757;28;20049;-80
2023/12/09 05:13:34;;;;;;;41.55;15.90;;;8.60;99.90;;;;;;5004129;28;20444;-80
2023/12/09 05:16:00;;;;;;;39.80;14.95;;;8.70;99.90;;;;;;5017824;28;20384;-80
2023/12/09 05:18:25;;;;;;;46.00;15.90;;;8.60;99.90;;;;;;5006371;28;20032;-80
2023/12/09 05:20:51;;;;;;;44.75;15.32;;;8.80;99.90;;;;;;5007582;28;20088;-80
2023/12/09 05:23:17;;;;;;;43.83;14.13;;;8.70;99.90;;;;;;5015643;28;20577;-80
2023/12/09 05:25:46;;;;;;;48.83;16.42;;;8.70;99.90;;;;;;4995732;28;20479;-80
2023/12/09 05:28:11;;;;;;;37.60;14.93;;;8.80;99.90;;;;;;5002436;28;20049;-80
2023/12/09 05:30:37;;;;;;;42.00;14.77;;;8.80;99.90;;;;;;5016716;28;20057;-80
2023/12/09 05:33:03;;;;;;;48.40;15.52;;;8.70;99.90;;;;;;5012601;28;20037;-80
2023/12/09 05:35:29;;;;;;;40.47;14.27;;;8.70;99.90;;;;;;5012629;28;20352;-80
2023/12/09 05:37:55;;;;;;;38.35;15.50;;;8.80;99.90;;;;;;5006490;28;20512;-80
2023/12/09 05:40:20;;;;;;;48.05;15.95;;;8.70;99.90;;;;;;5015571;28;20445;-80
2023/12/09 05:42:46;;;;;;;37.40;14.07;;;8.60;99.90;;;;;;5002027;28;20072;-80
2023/12/09 05:45:12;;;;;;;35.47;13.63;;;8.60;99.90;;;;;;5014969;28;20124;-80
2023/12/09 05:47:38;;;;;;;40.13;14.93;;;8.70;99.90;;;;;;5014349;28;20650;-80
2023/12/09 05:50:04;;;;;;;44.60;14.23;;;8.60;99.90;;;;;;4999541;28;20095;-80
2023/12/09 05:52:29;;;;;;;39.60;14.52;;;8.60;99.90;;;;;;5015745;28;20517;-80
2023/12/09 05:54:55;;;;;;;45.33;13.85;;;8.60;99.90;;;;;;5012467;28;20045;-80
2023/12/09 05:57:21;;;;;;;43.08;14.63;;;8.70;99.90;;;;;;5009893;28;20255;-80
2023/12/09 05:59:47;;;;;;;39.15;13.98;;;8.80;99.90;;;;;;5013836;28;20324;-80
2023/12/09 06:02:12;;;;;;;46.30;14.32;;;8.80;99.90;;;;;;5013224;28;20049;-80
2023/12/09 06:04:38;;;;;;;37.60;14.95;;;8.60;99.90;;;;;;4994024;28;20045;-80
2023/12/09 06:07:04;;;;;;;41.53;13.63;;;8.80;99.90;;;;;;4999916;28;20043;-80
2023/12/09 06:09:29;;;;;;;33.78;13.82;;;8.80;99.90;;;;;;5010111;28;20497;-80
2023/12/09 06:11:55;;;;;;;44.72;13.02;;;8.60;99.90;;;;;;5009795;28;20205;-80
2023/12/09 06:14:21;;;;;;;37.95;14.77;;;8.70;99.90;;;;;;4998123;28;20073;-80
2023/12/09 06:16:47;;;;;;;38.75;14.30;;;8.60;99.90;;;;;;5013509;28;20053;-80
2023/12/09 06:19:13;;;;;;;34.45;13.48;;;8.50;99.90;;;;;;5012402;28;20048;-81
2023/12/09 06:21:39;;;;;;;40.20;14.68;;;8.70;99.90;;;;;;5010377;28;20441;-80
2023/12/09 06:24:05;;;;;;;37.90;13.48;;;8.70;99.90;;;;;;5008332;28;20129;-80
2023/12/09 06:26:30;;;;;;;39.50;14.07;;;8.70;99.90;;;;;;4998006;28;20176;-80
2023/12/09 06:28:56;;;;;;;38.63;14.13;;;8.70;99.90;;;;;;4997636;28;20033;-80
2023/12/09 06:31:22;;;;;;;36.35;14.13;;;8.50;99.90;;;;;;5015681;28;20568;-80
2023/12/09 06:33:47;;;;;;;32.00;13.60;;;8.70;99.90;;;;;;5016060;28;20046;-80
2023/12/09 06:36:13;;;;;;;37.15;13.70;;;8.50;99.90;;;;;;5021857;28;20049;-80
2023/12/09 06:38:40;;;;;;;41.35;14.82;;;8.60;99.90;;;;;;4994858;28;20060;-80
2023/12/09 06:41:06;;;;;;;33.55;14.48;;;8.60;99.90;;;;;;5014961;28;20488;-80
2023/12/09 06:43:32;;;;;;;33.88;13.82;;;8.50;99.90;;;;;;5010964;28;20052;-80
2023/12/09 06:46:01;;;;;;;38.88;13.55;;;8.50;99.90;;;;;;5013717;28;20048;-80
2023/12/09 06:48:27;;;;;;;37.22;13.60;;;8.40;99.90;;;;;;5006183;28;20603;-80
2023/12/09 06:50:53;;;;;;;38.95;15.07;;;8.50;99.90;;;;;;4997014;28;20382;-80
2023/12/09 06:53:18;;;;;;;33.95;14.25;;;8.40;99.90;;;;;;5009975;28;20042;-80
2023/12/09 06:55:44;;;;;;;39.97;14.38;;;8.50;99.90;;;;;;5002773;28;20041;-80
2023/12/09 06:58:10;;;;;;;37.75;14.48;;;8.50;99.90;;;;;;5001364;28;20396;-80
2023/12/09 07:00:37;;;;;;;35.83;14.77;;;8.30;99.90;;;;;;5012901;28;20500;-80
2023/12/09 07:03:03;;;;;;;43.83;15.23;;;8.40;99.90;;;;;;5012102;28;20113;-80
2023/12/09 07:05:28;;;;;;;37.65;14.10;;;8.40;99.90;;;;;;5004636;28;20128;-80
2023/12/09 07:07:54;;;;;;;33.40;14.07;;;8.20;99.90;;;;;;5008436;28;20143;-80
2023/12/09 07:10:20;;;;;;;35.95;14.27;;;8.10;99.90;;;;;;5001971;28;20187;-80
2023/12/09 07:12:48;;;;;;;34.15;13.48;;;8.40;99.90;;;;;;5012954;28;20034;-80
2023/12/09 07:15:15;;;;;;;32.10;14.57;;;8.20;99.90;;;;;;5000470;28;20361;-80
2023/12/09 07:17:44;;;;;;;39.42;13.70;;;8.20;99.90;;;;;;4993248;28;20119;-80
2023/12/09 07:20:10;;;;;;;29.98;13.35;;;8.10;99.90;;;;;;5003722;28;20272;-80
2023/12/09 07:22:35;;;;;;;31.83;14.18;;;8.10;99.90;;;;;;4997484;28;20538;-80
2023/12/09 07:25:01;;;;;;;35.15;13.50;;;8.20;99.90;;;;;;5009207;28;20041;-80
2023/12/09 07:27:27;;;;;;;37.08;13.57;;;8.20;99.90;;;;;;4996424;28;20042;-80
2023/12/09 07:29:53;;;;;;;42.45;13.25;;;8.20;99.90;;;;;;4996507;28;20034;-80
2023/12/09 07:32:18;;;;;;;33.60;13.70;;;8.10;99.90;;;;;;4999405;28;20228;-80
2023/12/09 07:34:44;;;;;;;31.92;13.82;;;8.10;99.90;;;;;;5012825;28;20053;-80
2023/12/09 07:37:11;;;;;;;37.05;14.02;;;8.00;99.90;;;;;;5012307;28;20048;-80
2023/12/09 07:39:40;;;;;;;35.17;13.40;;;8.00;99.90;;;;;;4997904;28;20191;-80
2023/12/09 07:42:06;;;;;;;32.65;12.77;;;8.10;99.90;;;;;;4999341;28;20048;-80
2023/12/09 07:44:31;;;;;;;38.35;12.93;;;8.00;99.90;;;;;;5012347;28;20488;-81
2023/12/09 07:46:57;;;;;;;37.67;12.50;;;8.10;99.90;;;;;;4996791;28;20059;-80
2023/12/09 07:49:23;;;;;;;33.40;12.20;;;8.10;99.90;;;;;;5009296;28;20482;-80
2023/12/09 07:51:48;;;;;;;35.70;12.98;;;8.00;99.90;;;;;;5018039;28;20092;-80
2023/12/09 07:54:14;;;;;;;35.35;12.98;;;8.10;99.90;;;;;;5001854;28;20489;-80
2023/12/09 07:56:40;;;;;;;35.95;13.18;;;8.10;99.90;;;;;;4991486;28;20045;-80
2023/12/09 07:59:05;;;;;;;35.65;13.23;;;8.00;99.90;;;;;;4990932;28;20075;-80
2023/12/09 08:01:31;;;;;;;35.83;12.85;;;8.10;99.90;;;;;;5004114;28;20129;-79
2023/12/09 08:03:57;;;;;;;33.03;12.13;;;8.00;99.90;;;;;;5013253;28;20129;-80
2023/12/09 08:06:22;;;;;;;29.13;12.65;;;8.10;99.90;;;;;;4994692;28;20606;-81
2023/12/09 08:08:50;;;;;;;31.33;12.13;;;8.20;99.90;;;;;;4994711;28;20050;-80
2023/12/09 08:11:19;;;;;;;33.25;12.27;;;8.10;99.90;;;;;;4993749;28;20304;-80
2023/12/09 08:13:45;;;;;;;38.03;12.10;;;8.00;99.90;;;;;;4993282;28;20049;-80
2023/12/09 08:16:11;;;;;;;28.75;11.65;;;8.00;99.90;;;;;;5007902;28;20436;-80
2023/12/09 08:18:37;;;;;;;30.00;11.35;;;8.00;99.90;;;;;;5007668;28;20121;-80
2023/12/09 08:21:03;;;;;;;31.65;11.65;;;8.10;99.90;;;;;;5011844;28;20120;-80
2023/12/09 08:23:29;;;;;;;32.92;10.88;;;8.00;99.90;;;;;;5006703;28;20029;-80
2023/12/09 08:25:55;;;;;;;24.50;10.48;;;8.10;99.90;;;;;;4986918;28;20110;-80
2023/12/09 08:28:21;;;;;;;29.75;9.85;;;8.00;99.90;;;;;;5012789;28;20356;-80
2023/12/09 08:30:46;;;;;;;33.15;10.27;;;8.00;99.90;;;;;;4994229;28;20295;-80
2023/12/09 08:33:13;;;;;;;33.33;9.60;;;8.20;99.90;;;;;;5013500;28;20041;-80
2023/12/09 08:35:38;;;;;;;26.98;8.73;;;8.20;99.90;;;;;;5003227;28;20121;-80
2023/12/09 08:38:04;;;;;;;25.25;9.27;;;8.10;99.90;;;;;;5022956;28;20552;-80
2023/12/09 08:40:30;;;;;;;28.98;9.82;;;8.20;99.90;;;;;;4993798;28;20512;-80
2023/12/09 08:42:56;;;;;;;32.80;10.35;;;8.10;99.90;;;;;;4993175;28;20121;-80
2023/12/09 08:45:21;;;;;;;22.10;8.57;;;8.00;99.90;;;;;;5007818;28;20267;-81
2023/12/09 08:47:47;;;;;;;22.50;8.45;;;8.20;99.90;;;;;;5011816;28;20453;-80
2023/12/09 08:50:13;;;;;;;21.95;7.82;;;8.10;99.90;;;;;;5012040;28;20037;-80
2023/12/09 08:52:39;;;;;;;26.38;7.93;;;8.10;99.90;;;;;;4998545;28;20057;-80
2023/12/09 08:55:05;;;;;;;28.35;9.13;;;8.10;99.90;;;;;;5019554;28;20037;-80
2023/12/09 08:57:31;;;;;;;27.58;8.60;;;8.10;99.90;;;;;;4994542;28;20132;-80
2023/12/09 08:59:57;;;;;;;20.02;8.15;;;8.20;99.90;;;;;;5018535;28;20052;-80
2023/12/09 09:02:24;;;;;;;25.73;8.27;;;8.10;99.90;;;;;;5012386;28;20056;-81
2023/12/09 09:04:52;;;;;;;21.40;8.13;;;8.00;99.90;;;;;;5012453;28;20157;-80
2023/12/09 09:07:18;;;;;;;22.63;7.20;;;8.00;99.90;;;;;;5010882;28;20054;-80
2023/12/09 09:09:44;;;;;;;27.92;8.18;;;8.10;99.90;;;;;;5009911;28;20045;-80
2023/12/09 09:12:10;;;;;;;20.20;7.15;;;8.00;99.90;;;;;;5002357;28;20034;-80
2023/12/09 09:14:36;;;;;;;20.10;6.95;;;8.20;99.90;;;;;;4993716;28;20038;-80
2023/12/09 09:17:05;;;;;;;21.10;7.10;;;8.20;99.90;;;;;;4989329;28;20715;-80
2023/12/09 09:19:31;;;;;;;19.38;7.00;;;8.10;99.90;;;;;;4997488;28;20045;-80
2023/12/09 09:21:57;;;;;;;23.83;6.93;;;8.30;99.90;;;;;;5011257;28;20119;-80
2023/12/09 09:24:23;;;;;;;18.60;6.47;;;8.10;99.90;;;;;;5003914;28;20517;-80
2023/12/09 09:26:48;;;;;;;22.55;7.85;;;8.20;99.90;;;;;;5017641;28;20119;-80
2023/12/09 09:29:14;;;;;;;22.98;6.50;;;8.10;99.90;;;;;;4998347;28;20176;-80
2023/12/09 09:31:40;;;;;;;19.38;6.40;;;8.20;99.90;;;;;;5009295;28;20040;-80
2023/12/09 09:34:06;;;;;;;17.73;5.80;;;8.30;99.90;;;;;;5006633;28;20042;-80
2023/12/09 09:36:32;;;;;;;19.23;6.00;;;8.20;99.90;;;;;;5014650;28;20092;-80
2023/12/09 09:38:57;;;;;;;14.77;5.75;;;8.30;99.90;;;;;;5005819;28;20404;-80
2023/12/09 09:41:32;;;;;;;19.08;6.35;;;8.30;99.90;;;;;;5011077;28;20141;-80
2023/12/09 09:44:04;;;;;;;16.25;5.32;;;8.20;99.90;;;;;;5011643;28;20053;-80
2023/12/09 09:46:32;;;;;;;16.83;4.93;;;8.30;99.90;;;;;;4990631;28;20500;-80
2023/12/09 09:48:57;;;;;;;17.83;4.82;;;8.30;99.90;;;;;;5019684;28;20029;-80
2023/12/09 09:51:28;;;;;;;18.77;5.05;;;8.30;99.90;;;;;;5017917;28;20515;-81
2023/12/09 09:54:06;;;;;;;12.30;4.60;;;8.30;99.90;;;;;;5009070;28;20099;-80
2023/12/09 09:56:33;;;;;;;20.90;4.90;;;8.40;99.90;;;;;;5003902;28;20038;-80
2023/12/09 09:58:59;;;;;;;16.10;4.80;;;8.30;99.90;;;;;;5015208;28;20045;-80
2023/12/09 10:01:26;;;;;;;12.68;4.45;;;8.20;99.90;;;;;;4999108;28;20034;-80
2023/12/09 10:03:51;;;;;;;14.15;4.47;;;8.20;99.90;;;;;;5001193;28;20488;-80
2023/12/09 10:06:19;;;;;;;18.83;5.03;;;8.30;99.90;;;;;;5000614;28;20127;-81
2023/12/09 10:08:45;;;;;;;12.80;3.75;;;8.30;99.90;;;;;;5019237;28;20072;-80
2023/12/09 10:11:11;;;;;;;18.10;4.85;;;8.30;99.90;;;;;;4997326;28;20045;-80
2023/12/09 10:13:37;;;;;;;18.05;4.78;;;8.20;99.90;;;;;;5005275;28;20215;-81
2023/12/09 10:16:03;;;;;;;16.77;4.47;;;8.30;99.90;;;;;;4996213;28;20368;-80
2023/12/09 10:18:30;;;;;;;14.63;4.53;;;8.20;99.90;;;;;;4999726;28;20041;-80
2023/12/09 10:20:55;;;;;;;12.10;4.32;;;8.30;99.90;;;;;;4994826;28;20045;-80
2023/12/09 10:23:22;;;;;;;12.02;3.85;;;8.20;99.90;;;;;;5013569;28;20029;-80
2023/12/09 10:25:48;;;;;;;13.93;4.32;;;8.30;99.90;;;;;;4998556;28;20046;-80
2023/12/09 10:28:15;;;;;;;14.82;4.28;;;8.40;99.90;;;;;;4997884;28;20121;-80
2023/12/09 10:30:44;;;;;;;10.82;4.30;;;8.40;99.90;;;;;;5027076;28;20043;-80
2023/12/09 10:33:14;;;;;;;10.77;3.60;;;8.40;99.90;;;;;;5011266;28;20045;-80
2023/12/09 10:35:39;;;;;;;11.13;3.95;;;8.40;99.90;;;;;;5009971;28;20455;-80
2023/12/09 10:38:05;;;;;;;13.63;3.80;;;8.40;99.90;;;;;;5008398;28;20068;-81
2023/12/09 10:40:32;;;;;;;9.70;3.63;;;8.50;99.90;;;;;;5001980;28;20095;-80
2023/12/09 10:42:58;;;;;;;11.77;4.13;;;8.50;99.90;;;;;;5025563;28;20493;-80
2023/12/09 10:45:24;;;;;;;13.40;3.90;;;8.50;99.90;;;;;;4997345;28;20104;-80
2023/12/09 10:47:49;;;;;;;13.00;3.70;;;8.50;99.90;;;;;;5001422;28;20033;-80
2023/12/09 10:50:16;;;;;;;12.98;3.40;;;8.60;99.90;;;;;;4996340;28;20037;-80
2023/12/09 10:52:41;;;;;;;15.88;3.88;;;8.60;99.90;;;;;;5019362;28;20034;-80
2023/12/09 10:55:07;;;;;;;15.40;3.83;;;8.60;99.90;;;;;;5009573;28;20045;-80
2023/12/09 10:57:33;;;;;;;10.77;3.60;;;8.60;99.90;;;;;;5009973;28;20033;-80
2023/12/09 11:00:01;;;;;;;11.90;3.60;;;8.70;99.90;;;;;;4997223;28;20048;-80
2023/12/09 11:02:28;;;;;;;13.73;3.60;;;8.70;99.90;;;;;;4994070;28;20064;-80
2023/12/09 11:04:54;;;;;;;11.93;3.65;;;8.60;99.90;;;;;;5000195;28;20373;-80
2023/12/09 11:07:21;;;;;;;10.32;3.35;;;8.70;99.90;;;;;;5018148;28;20068;-80
2023/12/09 11:09:47;;;;;;;9.98;3.45;;;8.60;99.90;;;;;;5012046;28;20049;-80
2023/12/09 11:12:30;;;;;;;9.23;3.72;;;8.60;99.90;;;;;;5018818;28;20034;-80
2023/12/09 11:15:07;;;;;;;12.18;3.58;;;8.60;99.90;;;;;;5006727;28;20077;-80
2023/12/09 11:17:37;;;;;;;15.25;3.97;;;8.70;99.90;;;;;;5009606;28;20096;-80
2023/12/09 11:20:15;;;;;;;12.50;3.70;;;8.70;99.90;;;;;;4998300;28;20489;-81
2023/12/09 11:22:43;;;;;;;10.73;3.00;;;8.70;99.90;;;;;;5023473;28;20060;-80
2023/12/09 11:25:21;;;;;;;12.95;3.33;;;8.50;99.90;;;;;;5009234;28;20187;-81
2023/12/09 11:27:51;;;;;;;9.35;3.30;;;8.50;99.90;;;;;;5010563;28;20676;-81
2023/12/09 11:30:42;;;;;;;11.75;3.60;;;8.40;99.90;;;;;;5024554;28;20481;-81
2023/12/09 11:33:08;;;;;;;16.40;3.88;;;8.40;99.90;;;;;;5018032;28;20101;-80
2023/12/09 11:35:35;;;;;;;10.60;3.55;;;8.50;99.90;;;;;;5001278;28;20044;-80
2023/12/09 11:38:04;;;;;;;14.02;3.35;;;8.50;99.90;;;;;;5010383;28;20109;-80
2023/12/09 11:40:31;;;;;;;9.43;3.75;;;8.60;99.90;;;;;;4997048;28;20270;-80
2023/12/09 11:43:03;;;;;;;12.45;3.67;;;8.60;99.90;;;;;;4999956;28;20095;-80
2023/12/09 11:45:29;;;;;;;8.40;3.85;;;8.60;99.90;;;;;;5009400;28;20260;-81
2023/12/09 11:47:55;;;;;;;12.48;4.03;;;8.60;99.90;;;;;;4994364;28;20441;-81
2023/12/09 11:50:21;;;;;;;10.68;2.95;;;8.60;99.90;;;;;;5000160;28;20034;-80
2023/12/09 11:52:47;;;;;;;12.43;4.18;;;8.60;99.90;;;;;;5010095;28;20033;-80
2023/12/09 11:55:17;;;;;;;13.07;3.80;;;8.70;99.90;;;;;;4995293;28;20377;-80
2023/12/09 11:57:43;;;;;;;12.23;3.67;;;8.60;99.90;;;;;;5010685;28;20054;-81
2023/12/09 12:00:13;;;;;;;8.20;3.55;;;8.70;99.90;;;;;;5010478;28;20037;-80
2023/12/09 12:02:42;;;;;;;12.98;3.40;;;8.70;99.90;;;;;;5012145;28;20041;-80
2023/12/09 12:05:09;;;;;;;9.93;4.03;;;8.70;99.90;;;;;;5004847;28;20085;-81
2023/12/09 12:07:36;;;;;;;10.02;3.28;;;8.60;99.90;;;;;;4991497;28;20042;-80
2023/12/09 12:10:03;;;;;;;9.95;3.30;;;8.70;99.90;;;;;;4992293;28;20048;-80
2023/12/09 12:12:30;;;;;;;9.57;2.75;;;8.70;99.90;;;;;;5013320;28;20068;-81
2023/12/09 12:14:56;;;;;;;14.52;3.67;;;8.60;99.90;;;;;;5018534;28;20045;-80
2023/12/09 12:17:22;;;;;;;10.88;3.50;;;8.60;99.90;;;;;;4987757;28;20038;-80
2023/12/09 12:19:48;;;;;;;13.23;2.88;;;8.60;99.90;;;;;;5006337;28;20052;-80
2023/12/09 12:22:14;;;;;;;6.43;3.10;;;8.50;99.90;;;;;;5000199;28;20038;-80
2023/12/09 12:24:44;;;;;;;9.23;3.47;;;8.60;99.90;;;;;;4999149;28;20090;-80
2023/12/09 12:27:10;;;;;;;9.30;3.83;;;8.60;99.90;;;;;;4994517;28;20269;-80
2023/12/09 12:29:39;;;;;;;7.95;2.90;;;8.60;99.90;;;;;;5006572;28;20045;-81
2023/12/09 12:32:06;;;;;;;9.10;3.08;;;8.60;99.90;;;;;;5000259;28;20207;-81
2023/12/09 12:34:32;;;;;;;9.07;3.28;;;8.60;99.90;;;;;;4996084;28;20041;-81
2023/12/09 12:36:58;;;;;;;9.70;3.10;;;8.60;99.90;;;;;;4999228;28;20077;-80